Magnetawan, Canada
Current Conditions -  °F | °C
As of 10:00 PM on Saturday 25 Oct 2014 (Local Time) from CYYB Reporting Station
Overcast Overcast  
Wind Chill: 41°   Ceiling: 4000
Heat Index: 46°   Visibility: 15mi
Dew Point: 36°   Wind: 10mph
Humidity: 66%   Direction: 270°W
Pressure: 29.49"   Gusts: NA
Location:  45.67°N, 79.63°W
Report Text: CYYB 260200Z 27009KT 15SM OVC040 08/02 A2949 RMK SC8 LAST STFD OBS/NEXT 261100 UTC SLP994
Loading
Personal Weather Stations






























Interactive Weather Map
Tropical Storm Tracking
New forecast layout! Learn more

10-Day Weather Forecast

Advertisements
Track Severe Weather on mobile